Time;durP1;ratioP1;P1;durP2;ratioP2;P2;SDS_P1;SDS_P2;PMS_P1;PMS_P2;Temp;Humidity;BMP_temperature;BMP_pressure;BME280_temperature;BME280_humidity;BME280_pressure;Samples;Min_cycle;Max_cycle;Signal;HPM_P1;HPM_P2
2021/03/04 00:01:12;;;;;;;24.73;21.00;;;;;;;3.88;97.18;98720.53;5001454;28;20228;-67
2021/03/04 00:03:39;;;;;;;24.30;20.27;;;;;;;3.87;97.88;98721.50;5002282;28;20209;-68
2021/03/04 00:06:06;;;;;;;25.50;22.43;;;;;;;3.94;97.04;98711.44;5001058;28;20308;-68
2021/03/04 00:08:33;;;;;;;24.33;21.73;;;;;;;3.88;97.29;98710.91;5001640;28;20235;-68
2021/03/04 00:11:00;;;;;;;24.57;21.57;;;;;;;3.87;97.64;98709.22;4999107;28;20209;-69
2021/03/04 00:13:27;;;;;;;26.23;22.13;;;;;;;3.82;98.04;98707.84;4999906;28;20201;-67
2021/03/04 00:15:55;;;;;;;23.07;20.60;;;;;;;3.83;98.14;98704.28;5001113;28;20693;-69
2021/03/04 00:18:23;;;;;;;25.53;21.27;;;;;;;3.95;96.99;98705.25;4999558;28;20205;-67
2021/03/04 00:20:52;;;;;;;25.20;20.53;;;;;;;3.87;97.93;98704.00;5001023;28;20236;-68
2021/03/04 00:23:19;;;;;;;25.77;19.93;;;;;;;3.91;97.59;98696.75;5002320;28;20208;-68
2021/03/04 00:25:46;;;;;;;23.33;20.20;;;;;;;4.09;96.10;98684.16;4998471;28;20206;-68
2021/03/04 00:28:14;;;;;;;22.63;20.27;;;;;;;4.02;95.86;98691.63;5001783;28;20279;-67
2021/03/04 00:30:41;;;;;;;24.27;21.30;;;;;;;3.88;96.95;98691.69;4998386;28;20208;-67
2021/03/04 00:33:09;;;;;;;23.50;21.17;;;;;;;3.81;97.77;98675.56;5002952;28;20211;-68
2021/03/04 00:35:36;;;;;;;28.53;21.87;;;;;;;3.76;97.66;98683.72;5005369;28;20604;-66
2021/03/04 00:38:04;;;;;;;24.40;19.87;;;;;;;3.86;97.33;98680.47;5003286;28;20213;-68
2021/03/04 00:40:31;;;;;;;23.07;20.67;;;;;;;3.88;96.65;98678.59;5002590;28;20209;-67
2021/03/04 00:42:58;;;;;;;27.10;20.40;;;;;;;3.89;96.99;98673.25;5001102;28;20496;-67
2021/03/04 00:45:25;;;;;;;23.30;20.83;;;;;;;3.80;97.50;98673.03;5003299;28;20212;-68
2021/03/04 00:48:07;;;;;;;23.87;21.33;;;;;;;3.93;96.29;98659.94;5005299;28;20907;-68
2021/03/04 00:50:36;;;;;;;26.33;23.53;;;;;;;3.86;96.71;98667.38;5002762;28;20677;-67
2021/03/04 00:53:03;;;;;;;26.93;23.60;;;;;;;3.75;97.65;98668.94;5003158;28;20613;-66
2021/03/04 00:55:30;;;;;;;27.70;22.17;;;;;;;3.75;97.76;98661.09;5004197;28;20201;-68
2021/03/04 00:57:57;;;;;;;27.07;20.47;;;;;;;3.89;96.87;98656.66;5003690;28;20231;-67
2021/03/04 01:00:24;;;;;;;33.27;23.07;;;;;;;3.79;97.48;98655.63;4999710;28;20593;-67
2021/03/04 01:02:52;;;;;;;24.67;21.73;;;;;;;3.76;97.24;98657.50;5005614;28;21248;-67
2021/03/04 01:05:19;;;;;;;26.63;22.83;;;;;;;3.71;98.05;98657.00;5002406;28;20351;-67
2021/03/04 01:07:47;;;;;;;23.83;21.27;;;;;;;3.78;97.85;98656.56;5004050;28;20221;-67
2021/03/04 01:10:15;;;;;;;23.47;20.77;;;;;;;3.77;97.31;98655.72;5003778;28;20307;-67
2021/03/04 01:12:42;;;;;;;25.07;21.53;;;;;;;3.73;97.86;98646.38;5001622;28;20209;-67
2021/03/04 01:15:13;;;;;;;26.43;21.70;;;;;;;3.81;97.50;98643.25;5001715;28;20501;-67
2021/03/04 01:17:40;;;;;;;23.23;20.73;;;;;;;3.78;97.08;98633.78;5005472;28;20251;-69
2021/03/04 01:20:09;;;;;;;25.50;21.13;;;;;;;3.86;97.23;98631.50;5004898;28;20201;-68
2021/03/04 01:22:36;;;;;;;22.07;19.77;;;;;;;3.81;96.97;98628.38;5007213;28;20601;-68
2021/03/04 01:25:05;;;;;;;28.87;23.63;;;;;;;3.84;97.42;98628.16;5003244;28;20209;-67
2021/03/04 01:27:32;;;;;;;23.67;21.13;;;;;;;3.78;97.31;98618.06;5003202;28;20228;-68
2021/03/04 01:29:59;;;;;;;26.27;20.97;;;;;;;3.86;97.34;98620.16;5002988;28;20216;-66
2021/03/04 01:32:26;;;;;;;24.73;22.03;;;;;;;3.84;97.07;98615.03;5002338;28;20300;-67
2021/03/04 01:34:53;;;;;;;21.90;19.57;;;;;;;3.90;97.44;98616.38;5003673;28;20566;-67
2021/03/04 01:37:20;;;;;;;24.50;21.83;;;;;;;3.80;97.42;98605.72;4979074;28;713074;-67
2021/03/04 01:39:47;;;;;;;23.63;20.47;;;;;;;3.80;97.39;98605.72;5005898;28;20224;-68
2021/03/04 01:42:15;;;;;;;23.03;20.60;;;;;;;3.85;97.07;98608.84;5003809;28;20200;-66
2021/03/04 01:44:42;;;;;;;28.77;24.30;;;;;;;3.74;97.18;98601.72;4998902;28;20216;-67
2021/03/04 01:47:09;;;;;;;25.40;22.70;;;;;;;3.71;98.24;98606.31;5007300;28;20235;-68
2021/03/04 01:49:39;;;;;;;23.20;20.40;;;;;;;3.80;97.36;98600.47;5006067;28;20235;-67
2021/03/04 01:52:07;;;;;;;25.10;22.47;;;;;;;3.73;97.46;98592.19;5002893;28;20205;-68
2021/03/04 01:54:35;;;;;;;30.07;24.83;;;;;;;3.69;97.59;98600.34;5003780;28;20221;-68
2021/03/04 01:57:02;;;;;;;29.93;22.93;;;;;;;3.68;97.98;98596.06;5008869;28;20229;-67
2021/03/04 01:59:30;;;;;;;24.40;21.33;;;;;;;3.71;98.25;98591.47;5003841;28;20205;-68
2021/03/04 02:01:57;;;;;;;25.00;21.53;;;;;;;3.67;97.90;98590.00;5008776;28;20208;-68
2021/03/04 02:04:25;;;;;;;23.20;19.53;;;;;;;3.62;97.91;98576.38;5009707;28;20201;-67
2021/03/04 02:06:59;;;;;;;23.33;20.83;;;;;;;3.62;98.49;98577.19;5002417;28;20308;-68
2021/03/04 02:09:26;;;;;;;22.10;19.90;;;;;;;3.67;98.23;98569.03;5006851;28;20201;-67
2021/03/04 02:11:55;;;;;;;24.17;20.53;;;;;;;3.64;98.28;98576.25;5001982;28;20204;-67
2021/03/04 02:14:27;;;;;;;22.13;19.83;;;;;;;3.57;99.02;98579.28;5006638;28;20217;-66
2021/03/04 02:16:56;;;;;;;22.40;20.00;;;;;;;3.58;98.24;98577.50;5004204;28;20232;-67
2021/03/04 02:19:37;;;;;;;21.63;19.43;;;;;;;3.57;98.61;98573.19;5005073;28;20209;-67
2021/03/04 02:22:16;;;;;;;21.67;19.43;;;;;;;3.58;98.83;98572.25;5003502;28;20700;-68
2021/03/04 02:24:55;;;;;;;23.67;21.20;;;;;;;3.62;98.12;98571.94;5003064;28;20236;-67
2021/03/04 02:27:25;;;;;;;23.93;21.37;;;;;;;3.56;98.78;98577.63;5005151;28;20708;-67
2021/03/04 02:29:57;;;;;;;22.33;19.93;;;;;;;3.53;98.93;98576.97;5003181;28;20400;-68
2021/03/04 02:32:26;;;;;;;24.27;20.10;;;;;;;3.57;98.71;98570.56;5004852;28;20205;-67
2021/03/04 02:34:59;;;;;;;21.43;19.10;;;;;;;3.59;98.87;98576.56;5002795;28;20216;-68
2021/03/04 02:37:30;;;;;;;21.27;19.23;;;;;;;3.73;98.02;98571.22;5004285;28;20244;-67
2021/03/04 02:39:57;;;;;;;22.97;20.53;;;;;;;3.73;97.67;98572.97;5004891;28;20197;-68
2021/03/04 02:42:26;;;;;;;23.43;20.93;;;;;;;3.85;96.93;98566.06;5001142;28;20204;-67
2021/03/04 02:44:55;;;;;;;23.40;20.90;;;;;;;3.72;96.95;98576.53;5003013;28;20795;-67
2021/03/04 02:47:23;;;;;;;21.63;18.60;;;;;;;3.68;98.25;98567.22;5005478;28;20593;-67
2021/03/04 02:49:51;;;;;;;25.80;21.13;;;;;;;3.73;97.87;98572.97;5001992;28;20213;-68
2021/03/04 02:52:19;;;;;;;23.80;21.23;;;;;;;3.71;97.10;98560.00;5002759;28;21209;-67
2021/03/04 02:54:46;;;;;;;22.87;20.30;;;;;;;3.61;97.69;98564.22;5002291;28;20219;-67
2021/03/04 02:57:14;;;;;;;22.00;19.70;;;;;;;3.71;98.22;98554.75;5002445;28;20586;-68
2021/03/04 02:59:43;;;;;;;22.17;19.37;;;;;;;3.76;97.49;98557.03;4998546;28;20217;-67
2021/03/04 03:02:11;;;;;;;24.93;20.73;;;;;;;3.78;96.72;98555.16;4997289;28;20216;-67
2021/03/04 03:04:40;;;;;;;24.67;21.10;;;;;;;3.65;97.13;98549.94;5005337;28;20215;-67
2021/03/04 03:07:09;;;;;;;21.47;19.07;;;;;;;3.68;97.41;98547.09;5001639;28;20257;-69
2021/03/04 03:09:38;;;;;;;24.67;20.30;;;;;;;3.89;96.02;98543.91;5002835;28;20212;-67
2021/03/04 03:12:07;;;;;;;22.63;19.60;;;;;;;3.86;96.30;98544.13;5002854;28;20588;-67
2021/03/04 03:14:34;;;;;;;23.50;19.17;;;;;;;3.82;95.74;98542.66;5009729;28;20208;-67
2021/03/04 03:17:01;;;;;;;20.70;18.40;;;;;;;3.75;96.70;98530.00;5000868;28;20228;-67
2021/03/04 03:19:29;;;;;;;21.90;19.57;;;;;;;3.81;95.61;98528.75;4999006;28;20248;-68
2021/03/04 03:21:56;;;;;;;21.93;19.47;;;;;;;3.82;96.17;98525.16;5003704;28;20209;-67
2021/03/04 03:24:24;;;;;;;21.73;19.53;;;;;;;3.95;95.03;98532.97;5001021;28;20574;-67
2021/03/04 03:26:51;;;;;;;27.57;20.87;;;;;;;3.81;95.82;98527.88;5001584;28;20228;-67
2021/03/04 03:29:18;;;;;;;22.00;19.63;;;;;;;3.80;96.00;98531.44;5002031;28;20204;-69
2021/03/04 03:31:48;;;;;;;22.63;19.97;;;;;;;3.81;95.80;98533.13;5001360;28;20212;-67
2021/03/04 03:34:16;;;;;;;21.40;19.20;;;;;;;3.74;96.60;98517.84;5000535;28;20558;-67
2021/03/04 03:36:44;;;;;;;22.73;18.93;;;;;;;3.79;96.23;98514.91;4997101;28;20264;-67
2021/03/04 03:39:11;;;;;;;22.97;20.53;;;;;;;3.91;95.22;98513.16;4996785;28;20625;-67
2021/03/04 03:41:40;;;;;;;21.20;18.60;;;;;;;3.84;95.22;98504.06;5000879;28;20696;-67
2021/03/04 03:44:08;;;;;;;21.77;19.67;;;;;;;3.74;96.01;98507.34;5002109;28;20537;-68
2021/03/04 03:46:35;;;;;;;24.23;19.40;;;;;;;3.88;95.84;98505.53;5000194;28;20671;-68
2021/03/04 03:49:03;;;;;;;23.73;19.80;;;;;;;3.98;94.73;98510.97;5001016;28;20243;-68
2021/03/04 03:51:33;;;;;;;21.57;19.10;;;;;;;3.72;96.10;98509.25;5004121;28;20205;-69
2021/03/04 03:54:00;;;;;;;22.43;20.03;;;;;;;3.67;96.71;98521.84;4999282;28;20208;-67
2021/03/04 03:56:30;;;;;;;20.20;18.00;;;;;;;3.56;97.65;98508.63;5000725;28;20597;-68
2021/03/04 03:58:58;;;;;;;22.27;19.90;;;;;;;3.55;97.74;98506.94;5001625;28;20209;-69
2021/03/04 04:01:27;;;;;;;22.00;19.67;;;;;;;3.52;97.90;98509.78;5000044;28;20232;-67
2021/03/04 04:03:55;;;;;;;24.20;20.70;;;;;;;3.55;98.21;98514.81;5000974;28;20205;-68
2021/03/04 04:06:22;;;;;;;23.37;20.27;;;;;;;3.45;97.97;98517.25;5004609;28;20220;-68
2021/03/04 04:08:50;;;;;;;22.00;19.60;;;;;;;3.38;99.14;98518.59;5003262;28;20597;-68
2021/03/04 04:11:19;;;;;;;22.93;19.40;;;;;;;3.33;99.40;98514.50;5004534;28;20508;-67
2021/03/04 04:13:46;;;;;;;24.07;19.70;;;;;;;3.27;99.77;98509.69;4999031;28;20481;-68
2021/03/04 04:16:14;;;;;;;21.80;19.47;;;;;;;3.33;99.40;98508.44;5003257;28;20240;-69
2021/03/04 04:18:41;;;;;;;23.23;19.73;;;;;;;3.29;100.00;98499.13;5001062;28;20684;-68
2021/03/04 04:21:08;;;;;;;20.37;18.40;;;;;;;3.25;100.00;98505.53;4999565;28;20470;-68
2021/03/04 04:23:35;;;;;;;22.13;19.73;;;;;;;3.22;100.00;98505.69;5002809;28;20209;-67
2021/03/04 04:26:03;;;;;;;23.90;19.33;;;;;;;3.30;100.00;98503.41;4997610;28;20224;-67
2021/03/04 04:28:30;;;;;;;24.37;21.13;;;;;;;3.40;99.70;98504.44;4999657;28;20224;-68
2021/03/04 04:30:57;;;;;;;20.43;18.23;;;;;;;3.24;99.83;98503.84;5000883;28;20514;-68
2021/03/04 04:33:24;;;;;;;23.10;19.50;;;;;;;3.17;100.00;98506.03;4999862;28;20516;-68
2021/03/04 04:35:52;;;;;;;21.70;19.30;;;;;;;3.21;100.00;98498.78;5001703;28;20213;-68
2021/03/04 04:38:19;;;;;;;21.73;19.53;;;;;;;3.06;100.00;98496.28;5001045;28;20213;-68
2021/03/04 04:40:46;;;;;;;21.90;19.43;;;;;;;3.06;100.00;98498.06;5001691;28;20248;-68
2021/03/04 04:43:14;;;;;;;25.13;19.47;;;;;;;3.04;100.00;98493.78;5000486;28;20466;-68
2021/03/04 04:45:41;;;;;;;24.07;18.70;;;;;;;3.13;100.00;98488.84;5001124;28;20205;-68
2021/03/04 04:48:10;;;;;;;22.13;19.07;;;;;;;3.09;100.00;98488.22;5003135;28;20424;-68
2021/03/04 04:50:37;;;;;;;21.43;19.20;;;;;;;2.98;100.00;98488.94;4997964;28;20313;-68
2021/03/04 04:53:04;;;;;;;21.00;18.73;;;;;;;3.19;100.00;98486.63;4999607;28;20219;-68
2021/03/04 04:55:31;;;;;;;25.23;19.57;;;;;;;3.17;100.00;98491.13;4999363;28;20667;-68
2021/03/04 04:57:59;;;;;;;23.13;19.93;;;;;;;3.18;100.00;98487.56;5002531;28;20229;-67
2021/03/04 05:00:26;;;;;;;21.53;19.33;;;;;;;3.17;100.00;98477.22;4996509;28;20216;-69
2021/03/04 05:02:53;;;;;;;21.07;18.73;;;;;;;3.15;100.00;98479.09;4998502;28;20620;-68
2021/03/04 05:05:20;;;;;;;21.60;19.23;;;;;;;3.14;100.00;98478.25;4997746;28;20414;-67
2021/03/04 05:07:47;;;;;;;26.87;20.37;;;;;;;3.17;100.00;98470.19;4999409;28;20233;-68
2021/03/04 05:10:15;;;;;;;22.83;19.77;;;;;;;3.23;100.00;98468.13;5001241;28;20201;-67
2021/03/04 05:12:42;;;;;;;21.13;18.90;;;;;;;3.26;100.00;98468.72;5000285;28;20208;-68
2021/03/04 05:15:10;;;;;;;21.97;19.43;;;;;;;3.30;99.70;98464.13;5002004;28;20216;-68
2021/03/04 05:17:38;;;;;;;21.27;18.97;;;;;;;3.29;99.58;98459.81;5001839;28;20240;-67
2021/03/04 05:20:10;;;;;;;21.37;19.07;;;;;;;3.16;100.00;98458.03;5000304;28;20689;-67
2021/03/04 05:22:37;;;;;;;22.70;19.30;;;;;;;3.11;100.00;98448.84;5002195;28;20213;-68
2021/03/04 05:25:06;;;;;;;21.57;19.30;;;;;;;3.14;100.00;98449.44;5005329;28;20210;-66
2021/03/04 05:27:33;;;;;;;21.10;18.77;;;;;;;3.16;100.00;98444.94;5003436;28;20247;-68
2021/03/04 05:30:00;;;;;;;23.10;19.73;;;;;;;3.03;100.00;98444.97;5005763;28;20212;-68
2021/03/04 05:32:27;;;;;;;22.40;19.80;;;;;;;2.97;100.00;98447.16;5003217;28;20205;-69
2021/03/04 05:34:55;;;;;;;21.40;19.20;;;;;;;2.93;100.00;98443.06;5002782;28;20906;-67
2021/03/04 05:37:22;;;;;;;21.70;19.40;;;;;;;2.87;100.00;98445.19;5004695;28;20795;-67
2021/03/04 05:39:49;;;;;;;23.43;20.33;;;;;;;2.97;100.00;98442.75;5006577;28;20275;-68
2021/03/04 05:42:16;;;;;;;21.30;19.20;;;;;;;2.98;100.00;98436.56;5004005;28;20681;-69
2021/03/04 05:44:43;;;;;;;22.10;18.97;;;;;;;2.92;100.00;98433.56;5003771;28;20213;-69
2021/03/04 05:47:11;;;;;;;23.10;20.00;;;;;;;2.90;100.00;98436.25;5004012;28;20255;-68
2021/03/04 05:49:47;;;;;;;22.27;19.87;;;;;;;2.90;100.00;98433.63;5003772;28;20220;-66
2021/03/04 05:52:17;;;;;;;22.00;19.77;;;;;;;2.92;100.00;98430.94;5003858;28;20888;-68
2021/03/04 05:54:46;;;;;;;21.47;18.70;;;;;;;2.86;100.00;98424.31;5000329;28;20216;-68
2021/03/04 05:57:14;;;;;;;22.20;19.80;;;;;;;2.96;100.00;98424.53;5002491;28;20301;-69
2021/03/04 05:59:42;;;;;;;21.50;19.23;;;;;;;3.09;100.00;98427.97;5002847;28;20205;-68
2021/03/04 06:02:10;;;;;;;26.17;20.03;;;;;;;3.12;100.00;98421.72;5005858;28;20322;-69
2021/03/04 06:04:37;;;;;;;23.50;19.23;;;;;;;3.04;100.00;98417.00;5006246;28;20645;-69
2021/03/04 06:07:05;;;;;;;26.50;21.80;;;;;;;3.34;100.00;98415.81;5007189;28;20226;-68
2021/03/04 06:09:33;;;;;;;21.33;18.60;;;;;;;3.45;100.00;98408.03;5003332;28;20316;-67
2021/03/04 06:12:03;;;;;;;22.50;19.90;;;;;;;3.42;100.00;98413.47;5001021;28;20209;-68
2021/03/04 06:14:31;;;;;;;21.63;19.03;;;;;;;3.42;100.00;98408.22;5004229;28;20637;-69
2021/03/04 06:17:11;;;;;;;23.23;18.53;;;;;;;3.39;100.00;98407.59;5004386;28;20228;-68
2021/03/04 06:19:38;;;;;;;23.07;20.57;;;;;;;3.53;100.00;98406.63;5002720;28;20200;-68
2021/03/04 06:22:22;;;;;;;23.73;20.60;;;;;;;3.49;100.00;98392.94;5001867;28;20204;-67
2021/03/04 06:24:51;;;;;;;23.70;19.73;;;;;;;3.55;100.00;98395.09;5002959;28;20219;-68
2021/03/04 06:27:25;;;;;;;21.07;18.87;;;;;;;3.43;100.00;98396.00;5003333;28;20228;-68
2021/03/04 06:29:53;;;;;;;21.83;19.53;;;;;;;3.56;100.00;98399.41;5004549;28;20205;-69
2021/03/04 06:32:22;;;;;;;21.47;19.17;;;;;;;3.56;100.00;98399.41;5002657;28;20213;-68
2021/03/04 06:35:17;;;;;;;21.67;18.30;;;;;;;3.52;100.00;98399.72;5003234;28;20797;-68
2021/03/04 06:37:45;;;;;;;24.33;18.73;;;;;;;3.80;100.00;98395.13;4982385;28;20232;-67
2021/03/04 06:40:19;;;;;;;22.57;20.20;;;;;;;3.79;99.67;98393.44;5002347;28;20340;-68
2021/03/04 06:42:47;;;;;;;22.97;18.83;;;;;;;3.66;98.88;98391.72;5005386;28;20427;-67
2021/03/04 06:45:29;;;;;;;22.27;18.87;;;;;;;3.83;100.00;98395.75;5002238;28;20585;-68
2021/03/04 06:48:10;;;;;;;25.60;19.33;;;;;;;3.96;99.84;98397.47;5002295;28;20232;-68
2021/03/04 06:50:39;;;;;;;20.97;18.70;;;;;;;3.91;97.84;98398.66;4999004;28;20209;-70
2021/03/04 06:53:16;;;;;;;21.10;18.87;;;;;;;3.96;97.81;98392.22;5006116;28;20216;-68
2021/03/04 06:55:55;;;;;;;22.67;19.17;;;;;;;4.12;95.67;98394.56;5004177;28;20672;-68
2021/03/04 06:58:26;;;;;;;23.67;19.00;;;;;;;4.09;95.52;98387.75;5003830;28;20209;-68
2021/03/04 07:01:08;;;;;;;21.20;18.70;;;;;;;4.11;94.75;98391.09;5002203;28;20681;-68
2021/03/04 07:03:36;;;;;;;23.47;19.40;;;;;;;4.17;95.18;98385.41;5005369;28;20240;-68
2021/03/04 07:06:04;;;;;;;22.50;18.87;;;;;;;4.52;96.03;98390.72;5002177;28;20243;-68
2021/03/04 07:08:34;;;;;;;24.73;18.27;;;;;;;4.55;94.40;98387.91;5002001;28;20708;-68
2021/03/04 07:11:04;;;;;;;24.43;19.00;;;;;;;4.49;93.41;98379.53;5007474;28;21200;-68
2021/03/04 07:13:32;;;;;;;20.50;17.77;;;;;;;4.54;93.03;98384.44;5002801;28;20209;-70
2021/03/04 07:16:06;;;;;;;24.17;19.13;;;;;;;4.50;91.87;98383.00;5002517;28;20581;-67
2021/03/04 07:18:39;;;;;;;25.90;19.57;;;;;;;4.57;91.32;98378.13;5003996;28;20208;-68
2021/03/04 07:21:10;;;;;;;19.93;18.00;;;;;;;4.57;92.16;98378.13;5004562;28;20694;-69
2021/03/04 07:23:39;;;;;;;22.60;17.90;;;;;;;4.56;91.28;98382.53;5007525;28;20240;-68
2021/03/04 07:26:08;;;;;;;20.03;17.67;;;;;;;4.68;93.17;98372.88;5001504;28;20236;-68
2021/03/04 07:28:36;;;;;;;22.13;18.70;;;;;;;4.92;90.80;98385.91;5007580;28;20240;-68
2021/03/04 07:31:04;;;;;;;23.80;19.07;;;;;;;5.06;90.56;98378.75;5002757;28;20356;-67
2021/03/04 07:33:34;;;;;;;20.83;17.43;;;;;;;5.22;89.85;98378.38;5001198;28;20228;-69
2021/03/04 07:36:05;;;;;;;19.23;16.93;;;;;;;5.28;88.00;98371.81;5001900;28;20787;-68
2021/03/04 07:38:33;;;;;;;20.77;18.23;;;;;;;5.38;87.69;98374.56;5001175;28;20208;-68
2021/03/04 07:41:07;;;;;;;23.87;17.73;;;;;;;5.44;88.15;98377.53;5003079;28;20219;-66
2021/03/04 07:43:49;;;;;;;23.53;18.77;;;;;;;5.33;86.81;98372.28;5001755;28;20451;-68
2021/03/04 07:46:29;;;;;;;20.30;17.90;;;;;;;5.58;88.16;98378.25;5002194;28;20262;-69
2021/03/04 07:48:57;;;;;;;19.53;17.33;;;;;;;5.70;86.27;98371.16;5000582;28;20224;-68
2021/03/04 07:51:24;;;;;;;21.23;17.70;;;;;;;5.82;83.85;98371.94;4999676;28;20215;-69
2021/03/04 07:53:53;;;;;;;18.63;16.43;;;;;;;5.98;84.06;98358.38;5005011;28;20406;-68
2021/03/04 07:56:27;;;;;;;19.60;17.53;;;;;;;6.03;83.57;98367.59;5000714;28;20254;-67
2021/03/04 07:59:07;;;;;;;19.87;17.47;;;;;;;6.12;82.37;98357.28;5001598;28;20399;-69
2021/03/04 08:01:34;;;;;;;19.53;16.77;;;;;;;6.20;80.75;98362.75;5002003;28;20610;-70
2021/03/04 08:04:02;;;;;;;19.73;17.70;;;;;;;6.34;81.01;98358.97;5003169;28;20212;-68
2021/03/04 08:06:29;;;;;;;21.70;18.93;;;;;;;6.24;80.75;98353.63;5001966;28;20224;-70
2021/03/04 08:08:56;;;;;;;18.40;16.47;;;;;;;6.35;80.07;98355.38;5001003;28;20621;-67
2021/03/04 08:11:27;;;;;;;18.17;16.27;;;;;;;6.47;79.21;98350.88;5007798;28;20223;-69
2021/03/04 08:13:54;;;;;;;21.33;17.80;;;;;;;6.69;77.42;98346.44;5002022;28;20213;-68
2021/03/04 08:16:22;;;;;;;20.50;17.60;;;;;;;6.73;77.65;98345.22;5002933;28;20225;-69
2021/03/04 08:18:53;;;;;;;17.33;15.43;;;;;;;6.88;77.81;98346.53;5001009;28;20208;-69
2021/03/04 08:21:20;;;;;;;17.77;15.90;;;;;;;7.05;75.53;98339.81;4999576;28;20205;-69
2021/03/04 08:23:50;;;;;;;20.43;16.73;;;;;;;7.50;73.92;98335.06;5006900;28;20220;-68
2021/03/04 08:26:28;;;;;;;22.07;16.83;;;;;;;7.51;73.00;98337.56;5001169;28;20240;-69
2021/03/04 08:29:04;;;;;;;18.80;16.00;;;;;;;7.56;73.22;98334.50;5007672;28;20220;-68
2021/03/04 08:31:33;;;;;;;19.07;16.93;;;;;;;7.91;71.25;98337.63;5011217;28;20212;-68
2021/03/04 08:34:00;;;;;;;17.60;15.73;;;;;;;7.97;71.47;98335.28;5010142;28;20213;-66
2021/03/04 08:36:39;;;;;;;17.10;15.03;;;;;;;8.15;70.78;98326.63;5010866;28;20243;-66
2021/03/04 08:39:06;;;;;;;17.10;15.33;;;;;;;8.26;70.73;98323.03;5016952;28;20468;-67
2021/03/04 08:41:33;;;;;;;18.23;16.33;;;;;;;8.33;69.59;98317.97;5012926;28;20411;-69
2021/03/04 08:44:09;;;;;;;18.00;15.20;;;;;;;8.39;66.05;98326.19;5011288;28;20224;-68
2021/03/04 08:46:38;;;;;;;16.70;14.47;;;;;;;8.64;67.31;98320.47;5013882;28;20227;-68
2021/03/04 08:49:05;;;;;;;15.63;14.07;;;;;;;8.93;65.51;98306.31;5013119;28;20224;-69
2021/03/04 08:51:34;;;;;;;15.67;13.93;;;;;;;8.90;64.66;98310.09;5013342;28;20208;-69
2021/03/04 08:54:07;;;;;;;16.43;13.27;;;;;;;9.07;63.11;98302.34;5014524;28;20204;-69
2021/03/04 08:56:34;;;;;;;14.20;12.90;;;;;;;9.19;60.24;98298.53;5019478;28;20786;-68
2021/03/04 08:59:01;;;;;;;15.73;13.47;;;;;;;9.38;61.76;98297.56;5012178;28;20200;-67
2021/03/04 09:01:30;;;;;;;15.40;13.87;;;;;;;9.29;59.94;98289.72;5016731;28;20215;-70
2021/03/04 09:03:58;;;;;;;14.93;13.10;;;;;;;9.54;60.35;98299.56;5014352;28;20209;-70
2021/03/04 09:06:25;;;;;;;18.17;13.47;;;;;;;9.70;59.43;98292.78;5016503;28;20216;-69
2021/03/04 09:08:52;;;;;;;16.07;13.40;;;;;;;9.92;58.37;98286.19;5016227;28;20232;-69
2021/03/04 09:11:24;;;;;;;14.87;13.10;;;;;;;10.11;57.13;98285.19;5014482;28;20200;-69
2021/03/04 09:13:51;;;;;;;19.83;12.57;;;;;;;10.22;56.43;98277.97;5018897;28;20209;-69
2021/03/04 09:16:18;;;;;;;15.27;12.20;;;;;;;10.38;55.34;98270.13;5014469;28;20228;-68
2021/03/04 09:18:47;;;;;;;13.30;11.03;;;;;;;10.51;53.47;98260.97;5014504;28;20255;-68
2021/03/04 09:21:15;;;;;;;14.00;11.27;;;;;;;10.61;52.75;98269.63;5015858;28;20209;-70
2021/03/04 09:23:42;;;;;;;14.37;11.63;;;;;;;10.58;51.86;98264.66;5014560;28;20208;-68
2021/03/04 09:26:09;;;;;;;12.83;10.87;;;;;;;10.75;51.59;98268.22;5016610;28;20242;-69
2021/03/04 09:28:37;;;;;;;14.87;10.77;;;;;;;10.79;50.29;98268.72;5016675;28;20232;-68
2021/03/04 09:31:11;;;;;;;18.07;10.43;;;;;;;10.90;50.32;98264.97;5017994;28;20213;-69
2021/03/04 09:33:39;;;;;;;13.37;10.67;;;;;;;10.66;50.30;98254.09;5010766;28;20300;-69
2021/03/04 09:36:07;;;;;;;13.37;10.10;;;;;;;10.86;50.02;98252.03;5014513;28;20243;-68
2021/03/04 09:38:37;;;;;;;12.13;10.50;;;;;;;10.80;50.92;98246.56;5014938;28;20200;-70
2021/03/04 09:41:13;;;;;;;13.23;10.70;;;;;;;10.71;50.76;98237.72;5011574;28;20459;-67
2021/03/04 09:43:42;;;;;;;15.10;9.90;;;;;;;11.20;50.23;98236.22;5011292;28;20498;-68
2021/03/04 09:46:12;;;;;;;13.27;10.73;;;;;;;11.35;50.17;98237.25;5015809;28;20228;-69
2021/03/04 09:48:39;;;;;;;13.13;11.07;;;;;;;11.36;50.02;98230.13;5010134;28;20233;-69
2021/03/04 09:51:07;;;;;;;13.93;10.97;;;;;;;11.26;50.01;98231.13;5014516;28;20205;-68
2021/03/04 09:53:44;;;;;;;14.53;11.47;;;;;;;11.26;50.09;98235.56;5017267;28;20204;-67
2021/03/04 09:56:12;;;;;;;13.00;11.17;;;;;;;11.27;49.50;98232.78;5015393;28;20747;-68
2021/03/04 09:58:42;;;;;;;11.43;10.33;;;;;;;11.08;50.42;98222.44;5011704;28;20205;-69
2021/03/04 10:01:09;;;;;;;17.40;10.50;;;;;;;11.26;49.11;98225.81;5010519;28;20204;-70
2021/03/04 10:03:42;;;;;;;18.40;9.90;;;;;;;11.21;49.79;98219.31;5007163;28;20300;-69
2021/03/04 10:06:19;;;;;;;12.67;10.63;;;;;;;11.24;50.13;98227.78;5015840;28;20351;-70
2021/03/04 10:08:53;;;;;;;12.40;10.10;;;;;;;11.22;49.78;98221.81;5011119;28;20235;-68
2021/03/04 10:11:21;;;;;;;11.80;10.20;;;;;;;11.33;49.47;98217.19;5014580;28;20243;-71
2021/03/04 10:13:48;;;;;;;15.93;10.83;;;;;;;11.43;50.14;98215.22;5016179;28;20213;-69
2021/03/04 10:16:15;;;;;;;14.60;9.90;;;;;;;11.47;49.10;98213.06;5009947;28;20419;-70
2021/03/04 10:18:44;;;;;;;12.93;10.47;;;;;;;11.31;49.69;98187.34;5017984;28;20437;-69
2021/03/04 10:21:11;;;;;;;11.00;9.83;;;;;;;11.61;49.66;98190.34;5012809;28;20216;-70
2021/03/04 10:23:38;;;;;;;13.23;10.57;;;;;;;11.88;47.85;98190.00;5009807;28;20672;-69
2021/03/04 10:26:06;;;;;;;21.83;9.23;;;;;;;11.88;48.91;98184.69;5015163;28;20597;-69
2021/03/04 10:28:33;;;;;;;11.50;10.10;;;;;;;11.70;48.68;98189.34;5014443;28;20279;-68
2021/03/04 10:31:00;;;;;;;12.13;10.00;;;;;;;11.57;49.69;98192.50;5017241;28;20201;-69
2021/03/04 10:33:28;;;;;;;14.20;10.37;;;;;;;11.61;48.98;98185.03;5015644;28;20704;-70
2021/03/04 10:35:55;;;;;;;10.60;8.97;;;;;;;11.52;49.53;98187.69;5012977;28;20216;-70
2021/03/04 10:38:22;;;;;;;11.40;10.03;;;;;;;11.64;49.79;98179.41;5015159;28;20208;-69
2021/03/04 10:40:49;;;;;;;12.77;9.90;;;;;;;11.80;48.72;98181.22;5018353;28;20209;-70
2021/03/04 10:43:17;;;;;;;11.83;10.17;;;;;;;11.69;49.89;98185.03;5013451;28;20201;-71
2021/03/04 10:45:44;;;;;;;17.73;10.77;;;;;;;11.75;49.59;98179.06;5019165;28;20209;-69
2021/03/04 10:48:12;;;;;;;11.60;10.40;;;;;;;11.93;49.73;98183.34;5014287;28;20304;-70
2021/03/04 10:50:40;;;;;;;13.67;10.40;;;;;;;12.07;49.02;98177.41;5009196;28;20208;-70
2021/03/04 10:53:08;;;;;;;17.47;10.27;;;;;;;12.16;48.79;98168.41;5012499;28;20232;-70
2021/03/04 10:55:40;;;;;;;11.03;9.90;;;;;;;12.35;48.35;98168.19;5012333;28;20640;-70
2021/03/04 10:58:07;;;;;;;13.90;10.10;;;;;;;12.59;48.67;98157.47;5014220;28;20270;-70
2021/03/04 11:00:35;;;;;;;12.30;9.83;;;;;;;12.50;48.42;98162.97;5012110;28;20730;-71
2021/03/04 11:03:03;;;;;;;16.40;10.73;;;;;;;12.28;47.70;98154.75;5014206;28;20214;-69
2021/03/04 11:05:30;;;;;;;15.67;10.67;;;;;;;12.41;47.63;98152.41;5013631;28;20506;-70
2021/03/04 11:07:57;;;;;;;11.47;10.33;;;;;;;12.44;48.13;98152.03;5010453;28;20243;-69
2021/03/04 11:10:24;;;;;;;15.10;11.07;;;;;;;12.51;47.32;98154.84;5011604;28;20791;-70
2021/03/04 11:12:52;;;;;;;13.67;10.90;;;;;;;12.41;48.32;98152.41;5013551;28;20718;-70
2021/03/04 11:15:19;;;;;;;15.63;11.20;;;;;;;12.71;48.24;98138.47;5012076;28;20391;-70
2021/03/04 11:17:50;;;;;;;11.63;10.43;;;;;;;13.06;47.48;98146.91;5009725;28;20315;-70
2021/03/04 11:20:19;;;;;;;18.20;10.87;;;;;;;13.36;46.64;98141.72;5016396;28;20704;-71
2021/03/04 11:22:46;;;;;;;15.23;13.47;;;;;;;12.92;47.86;98139.69;5007033;28;20211;-69
2021/03/04 11:25:14;;;;;;;16.57;12.80;;;;;;;13.22;47.29;98127.34;5011615;28;20501;-70
2021/03/04 11:27:41;;;;;;;17.13;12.47;;;;;;;13.42;47.47;98118.84;5011404;28;20220;-69
2021/03/04 11:30:09;;;;;;;16.10;11.87;;;;;;;13.20;47.23;98113.38;5012045;28;20219;-69